sensor_id;sensor_type;location;lat;lon;timestamp;P1;durP1;ratioP1;P2;durP2;ratioP2
42110;SDS011;27766;52.174;5.456;2023-02-19T00:01:27;28.88;;;9.90;;
42110;SDS011;27766;52.174;5.456;2023-02-19T00:04:10;25.27;;;9.68;;
42110;SDS011;27766;52.174;5.456;2023-02-19T00:06:45;22.83;;;9.53;;
42110;SDS011;27766;52.174;5.456;2023-02-19T00:09:14;21.55;;;8.73;;
42110;SDS011;27766;52.174;5.456;2023-02-19T00:11:43;18.60;;;8.35;;
42110;SDS011;27766;52.174;5.456;2023-02-19T00:14:15;18.33;;;7.40;;
42110;SDS011;27766;52.174;5.456;2023-02-19T00:16:45;23.60;;;8.40;;
42110;SDS011;27766;52.174;5.456;2023-02-19T00:19:13;14.05;;;7.60;;
42110;SDS011;27766;52.174;5.456;2023-02-19T00:21:42;21.55;;;7.38;;
42110;SDS011;27766;52.174;5.456;2023-02-19T00:24:09;18.60;;;8.27;;
42110;SDS011;27766;52.174;5.456;2023-02-19T00:26:38;14.75;;;7.10;;
42110;SDS011;27766;52.174;5.456;2023-02-19T00:29:06;17.58;;;6.75;;
42110;SDS011;27766;52.174;5.456;2023-02-19T00:31:34;21.20;;;8.15;;
42110;SDS011;27766;52.174;5.456;2023-02-19T00:34:02;16.55;;;7.68;;
42110;SDS011;27766;52.174;5.456;2023-02-19T00:36:31;20.27;;;8.23;;
42110;SDS011;27766;52.174;5.456;2023-02-19T00:39:02;14.40;;;6.93;;
42110;SDS011;27766;52.174;5.456;2023-02-19T00:41:30;22.63;;;7.00;;
42110;SDS011;27766;52.174;5.456;2023-02-19T00:43:59;18.02;;;7.03;;
42110;SDS011;27766;52.174;5.456;2023-02-19T00:46:29;12.00;;;6.75;;
42110;SDS011;27766;52.174;5.456;2023-02-19T00:49:01;14.82;;;5.45;;
42110;SDS011;27766;52.174;5.456;2023-02-19T00:51:31;18.92;;;7.53;;
42110;SDS011;27766;52.174;5.456;2023-02-19T00:54:00;20.77;;;7.38;;
42110;SDS011;27766;52.174;5.456;2023-02-19T00:56:28;20.30;;;7.88;;
42110;SDS011;27766;52.174;5.456;2023-02-19T00:58:55;17.23;;;7.63;;
42110;SDS011;27766;52.174;5.456;2023-02-19T01:01:22;30.33;;;8.18;;
42110;SDS011;27766;52.174;5.456;2023-02-19T01:03:51;25.98;;;8.40;;
42110;SDS011;27766;52.174;5.456;2023-02-19T01:06:19;17.13;;;7.00;;
42110;SDS011;27766;52.174;5.456;2023-02-19T01:08:47;17.88;;;7.50;;
42110;SDS011;27766;52.174;5.456;2023-02-19T01:11:15;25.23;;;7.82;;
42110;SDS011;27766;52.174;5.456;2023-02-19T01:13:43;18.33;;;7.55;;
42110;SDS011;27766;52.174;5.456;2023-02-19T01:18:40;18.00;;;8.95;;
42110;SDS011;27766;52.174;5.456;2023-02-19T01:21:08;21.58;;;7.43;;
42110;SDS011;27766;52.174;5.456;2023-02-19T01:23:39;15.50;;;8.23;;
42110;SDS011;27766;52.174;5.456;2023-02-19T01:26:07;14.18;;;7.35;;
42110;SDS011;27766;52.174;5.456;2023-02-19T01:28:36;21.83;;;8.02;;
42110;SDS011;27766;52.174;5.456;2023-02-19T01:31:05;16.15;;;8.07;;
42110;SDS011;27766;52.174;5.456;2023-02-19T01:33:34;23.08;;;10.60;;
42110;SDS011;27766;52.174;5.456;2023-02-19T01:36:01;20.10;;;8.90;;
42110;SDS011;27766;52.174;5.456;2023-02-19T01:38:30;19.20;;;8.63;;
42110;SDS011;27766;52.174;5.456;2023-02-19T01:40:58;26.60;;;10.00;;
42110;SDS011;27766;52.174;5.456;2023-02-19T01:43:27;17.63;;;9.27;;
42110;SDS011;27766;52.174;5.456;2023-02-19T01:45:54;21.20;;;8.70;;
42110;SDS011;27766;52.174;5.456;2023-02-19T01:48:22;17.40;;;8.77;;
42110;SDS011;27766;52.174;5.456;2023-02-19T01:50:56;18.92;;;8.52;;
42110;SDS011;27766;52.174;5.456;2023-02-19T01:53:29;20.70;;;9.48;;
42110;SDS011;27766;52.174;5.456;2023-02-19T01:56:03;16.40;;;8.65;;
42110;SDS011;27766;52.174;5.456;2023-02-19T01:58:32;18.00;;;8.48;;
42110;SDS011;27766;52.174;5.456;2023-02-19T02:01:02;19.58;;;8.10;;
42110;SDS011;27766;52.174;5.456;2023-02-19T02:03:31;16.63;;;8.40;;
42110;SDS011;27766;52.174;5.456;2023-02-19T02:06:02;24.50;;;9.10;;
42110;SDS011;27766;52.174;5.456;2023-02-19T02:11:21;36.53;;;8.93;;
42110;SDS011;27766;52.174;5.456;2023-02-19T02:13:48;18.38;;;9.85;;
42110;SDS011;27766;52.174;5.456;2023-02-19T02:27:00;13.48;;;8.88;;
42110;SDS011;27766;52.174;5.456;2023-02-19T02:32:07;18.20;;;8.47;;
42110;SDS011;27766;52.174;5.456;2023-02-19T02:34:40;15.82;;;8.63;;
42110;SDS011;27766;52.174;5.456;2023-02-19T02:37:17;14.23;;;8.57;;
42110;SDS011;27766;52.174;5.456;2023-02-19T02:39:44;15.55;;;8.25;;
42110;SDS011;27766;52.174;5.456;2023-02-19T02:42:13;15.85;;;7.85;;
42110;SDS011;27766;52.174;5.456;2023-02-19T02:44:55;20.35;;;8.18;;
42110;SDS011;27766;52.174;5.456;2023-02-19T02:47:58;15.13;;;7.50;;
42110;SDS011;27766;52.174;5.456;2023-02-19T02:56:47;18.25;;;5.75;;
42110;SDS011;27766;52.174;5.456;2023-02-19T02:59:17;10.70;;;6.03;;
42110;SDS011;27766;52.174;5.456;2023-02-19T03:01:48;9.30;;;5.90;;
42110;SDS011;27766;52.174;5.456;2023-02-19T03:07:54;18.15;;;5.28;;
42110;SDS011;27766;52.174;5.456;2023-02-19T03:10:27;16.45;;;5.22;;
42110;SDS011;27766;52.174;5.456;2023-02-19T03:15:47;13.00;;;5.15;;
42110;SDS011;27766;52.174;5.456;2023-02-19T03:18:36;10.75;;;5.00;;
42110;SDS011;27766;52.174;5.456;2023-02-19T03:21:27;17.00;;;5.07;;
42110;SDS011;27766;52.174;5.456;2023-02-19T03:23:54;14.63;;;5.07;;
42110;SDS011;27766;52.174;5.456;2023-02-19T03:26:41;14.45;;;5.00;;
42110;SDS011;27766;52.174;5.456;2023-02-19T03:29:11;19.58;;;5.82;;
42110;SDS011;27766;52.174;5.456;2023-02-19T03:31:56;18.25;;;5.85;;
42110;SDS011;27766;52.174;5.456;2023-02-19T03:34:36;18.73;;;5.63;;
42110;SDS011;27766;52.174;5.456;2023-02-19T03:37:14;15.82;;;5.97;;
42110;SDS011;27766;52.174;5.456;2023-02-19T03:39:47;13.45;;;5.47;;
42110;SDS011;27766;52.174;5.456;2023-02-19T03:45:10;12.18;;;6.57;;
42110;SDS011;27766;52.174;5.456;2023-02-19T03:50:28;16.65;;;6.53;;
42110;SDS011;27766;52.174;5.456;2023-02-19T03:53:11;12.93;;;5.88;;
42110;SDS011;27766;52.174;5.456;2023-02-19T03:58:16;14.07;;;5.50;;
42110;SDS011;27766;52.174;5.456;2023-02-19T04:00:56;12.98;;;5.63;;
42110;SDS011;27766;52.174;5.456;2023-02-19T04:03:36;11.73;;;6.25;;
42110;SDS011;27766;52.174;5.456;2023-02-19T04:06:13;16.65;;;6.72;;
42110;SDS011;27766;52.174;5.456;2023-02-19T04:08:47;13.77;;;6.22;;
42110;SDS011;27766;52.174;5.456;2023-02-19T04:11:17;17.20;;;6.30;;
42110;SDS011;27766;52.174;5.456;2023-02-19T04:13:47;13.75;;;6.45;;
42110;SDS011;27766;52.174;5.456;2023-02-19T04:16:21;19.70;;;5.97;;
42110;SDS011;27766;52.174;5.456;2023-02-19T04:18:54;13.88;;;6.50;;
42110;SDS011;27766;52.174;5.456;2023-02-19T04:21:25;9.63;;;5.20;;
42110;SDS011;27766;52.174;5.456;2023-02-19T04:23:55;17.02;;;5.20;;
42110;SDS011;27766;52.174;5.456;2023-02-19T04:26:28;11.98;;;5.70;;
42110;SDS011;27766;52.174;5.456;2023-02-19T04:28:58;13.77;;;6.03;;
42110;SDS011;27766;52.174;5.456;2023-02-19T04:31:25;13.55;;;5.90;;
42110;SDS011;27766;52.174;5.456;2023-02-19T04:33:55;8.20;;;5.38;;
42110;SDS011;27766;52.174;5.456;2023-02-19T04:36:22;13.35;;;6.05;;
42110;SDS011;27766;52.174;5.456;2023-02-19T04:38:50;14.30;;;6.00;;
42110;SDS011;27766;52.174;5.456;2023-02-19T04:41:17;13.32;;;6.80;;
42110;SDS011;27766;52.174;5.456;2023-02-19T04:43:44;13.15;;;5.57;;
42110;SDS011;27766;52.174;5.456;2023-02-19T04:46:11;17.40;;;6.65;;
42110;SDS011;27766;52.174;5.456;2023-02-19T04:48:38;15.63;;;5.70;;
42110;SDS011;27766;52.174;5.456;2023-02-19T04:51:05;13.55;;;6.13;;
42110;SDS011;27766;52.174;5.456;2023-02-19T04:53:33;19.73;;;7.13;;
42110;SDS011;27766;52.174;5.456;2023-02-19T04:56:11;17.58;;;6.47;;
42110;SDS011;27766;52.174;5.456;2023-02-19T04:58:40;20.15;;;6.55;;
42110;SDS011;27766;52.174;5.456;2023-02-19T05:01:08;8.38;;;5.80;;
42110;SDS011;27766;52.174;5.456;2023-02-19T05:03:37;16.55;;;5.95;;
42110;SDS011;27766;52.174;5.456;2023-02-19T05:06:05;10.65;;;5.32;;
42110;SDS011;27766;52.174;5.456;2023-02-19T05:08:35;11.07;;;6.15;;
42110;SDS011;27766;52.174;5.456;2023-02-19T05:11:03;11.13;;;6.28;;
42110;SDS011;27766;52.174;5.456;2023-02-19T05:13:31;12.15;;;6.03;;
42110;SDS011;27766;52.174;5.456;2023-02-19T05:15:59;12.20;;;5.45;;
42110;SDS011;27766;52.174;5.456;2023-02-19T05:18:28;10.43;;;5.13;;
42110;SDS011;27766;52.174;5.456;2023-02-19T05:20:57;12.48;;;5.15;;
42110;SDS011;27766;52.174;5.456;2023-02-19T05:23:26;16.08;;;5.47;;
42110;SDS011;27766;52.174;5.456;2023-02-19T05:25:54;8.93;;;4.90;;
42110;SDS011;27766;52.174;5.456;2023-02-19T05:28:21;8.00;;;5.07;;
42110;SDS011;27766;52.174;5.456;2023-02-19T05:30:54;9.82;;;5.38;;
42110;SDS011;27766;52.174;5.456;2023-02-19T05:33:24;11.48;;;5.75;;
42110;SDS011;27766;52.174;5.456;2023-02-19T05:35:52;12.30;;;4.95;;
42110;SDS011;27766;52.174;5.456;2023-02-19T05:38:24;19.15;;;5.60;;
42110;SDS011;27766;52.174;5.456;2023-02-19T05:40:51;12.05;;;5.15;;
42110;SDS011;27766;52.174;5.456;2023-02-19T05:43:18;15.75;;;5.43;;
42110;SDS011;27766;52.174;5.456;2023-02-19T05:45:45;20.15;;;5.35;;
42110;SDS011;27766;52.174;5.456;2023-02-19T05:48:12;10.40;;;5.03;;
42110;SDS011;27766;52.174;5.456;2023-02-19T05:50:39;9.30;;;5.07;;
42110;SDS011;27766;52.174;5.456;2023-02-19T05:53:07;13.63;;;5.28;;
42110;SDS011;27766;52.174;5.456;2023-02-19T05:55:35;13.23;;;5.47;;
42110;SDS011;27766;52.174;5.456;2023-02-19T05:58:02;9.88;;;5.00;;
42110;SDS011;27766;52.174;5.456;2023-02-19T06:00:29;14.63;;;6.10;;
42110;SDS011;27766;52.174;5.456;2023-02-19T06:02:59;12.30;;;7.43;;
42110;SDS011;27766;52.174;5.456;2023-02-19T06:05:26;12.75;;;7.78;;
42110;SDS011;27766;52.174;5.456;2023-02-19T06:07:54;23.58;;;8.35;;
42110;SDS011;27766;52.174;5.456;2023-02-19T06:10:22;19.67;;;7.85;;
42110;SDS011;27766;52.174;5.456;2023-02-19T06:12:52;19.67;;;8.85;;
42110;SDS011;27766;52.174;5.456;2023-02-19T06:15:21;16.65;;;8.75;;
42110;SDS011;27766;52.174;5.456;2023-02-19T06:17:48;16.98;;;9.02;;
42110;SDS011;27766;52.174;5.456;2023-02-19T06:20:15;18.88;;;9.15;;
42110;SDS011;27766;52.174;5.456;2023-02-19T06:22:42;29.30;;;10.40;;
42110;SDS011;27766;52.174;5.456;2023-02-19T06:25:10;20.30;;;10.00;;
42110;SDS011;27766;52.174;5.456;2023-02-19T06:27:39;20.90;;;10.43;;
42110;SDS011;27766;52.174;5.456;2023-02-19T06:30:07;28.02;;;10.23;;
42110;SDS011;27766;52.174;5.456;2023-02-19T06:32:34;19.10;;;10.48;;
42110;SDS011;27766;52.174;5.456;2023-02-19T06:35:01;15.40;;;11.15;;
42110;SDS011;27766;52.174;5.456;2023-02-19T06:37:29;18.63;;;10.52;;
42110;SDS011;27766;52.174;5.456;2023-02-19T06:39:57;22.40;;;12.20;;
42110;SDS011;27766;52.174;5.456;2023-02-19T06:42:24;22.20;;;11.65;;
42110;SDS011;27766;52.174;5.456;2023-02-19T06:44:51;30.08;;;11.50;;
42110;SDS011;27766;52.174;5.456;2023-02-19T06:47:18;20.45;;;10.80;;
42110;SDS011;27766;52.174;5.456;2023-02-19T06:49:45;20.70;;;13.20;;
42110;SDS011;27766;52.174;5.456;2023-02-19T06:52:12;24.25;;;13.30;;
42110;SDS011;27766;52.174;5.456;2023-02-19T06:54:39;24.65;;;13.35;;
42110;SDS011;27766;52.174;5.456;2023-02-19T06:57:06;22.98;;;12.50;;
42110;SDS011;27766;52.174;5.456;2023-02-19T06:59:33;20.23;;;12.80;;
42110;SDS011;27766;52.174;5.456;2023-02-19T07:02:00;25.45;;;14.05;;
42110;SDS011;27766;52.174;5.456;2023-02-19T07:04:27;23.23;;;14.45;;
42110;SDS011;27766;52.174;5.456;2023-02-19T07:06:55;26.20;;;14.30;;
42110;SDS011;27766;52.174;5.456;2023-02-19T07:09:22;29.38;;;15.30;;
42110;SDS011;27766;52.174;5.456;2023-02-19T07:11:51;38.03;;;15.40;;
42110;SDS011;27766;52.174;5.456;2023-02-19T07:14:18;31.88;;;14.68;;
42110;SDS011;27766;52.174;5.456;2023-02-19T07:16:45;23.40;;;14.45;;
42110;SDS011;27766;52.174;5.456;2023-02-19T07:19:13;26.00;;;13.88;;
42110;SDS011;27766;52.174;5.456;2023-02-19T07:21:41;27.23;;;14.05;;
42110;SDS011;27766;52.174;5.456;2023-02-19T07:24:08;22.67;;;14.43;;
42110;SDS011;27766;52.174;5.456;2023-02-19T07:26:36;27.52;;;14.45;;
42110;SDS011;27766;52.174;5.456;2023-02-19T07:29:03;31.33;;;13.18;;
42110;SDS011;27766;52.174;5.456;2023-02-19T07:31:30;25.83;;;13.02;;
42110;SDS011;27766;52.174;5.456;2023-02-19T07:33:58;29.63;;;14.00;;
42110;SDS011;27766;52.174;5.456;2023-02-19T07:36:25;29.45;;;13.93;;
42110;SDS011;27766;52.174;5.456;2023-02-19T07:38:53;25.75;;;14.27;;
42110;SDS011;27766;52.174;5.456;2023-02-19T07:41:25;31.08;;;13.50;;
42110;SDS011;27766;52.174;5.456;2023-02-19T07:43:53;17.00;;;12.20;;
42110;SDS011;27766;52.174;5.456;2023-02-19T07:46:24;36.47;;;13.88;;
42110;SDS011;27766;52.174;5.456;2023-02-19T07:48:51;27.05;;;14.00;;
42110;SDS011;27766;52.174;5.456;2023-02-19T07:51:18;24.60;;;12.32;;
42110;SDS011;27766;52.174;5.456;2023-02-19T07:53:47;24.70;;;13.18;;
42110;SDS011;27766;52.174;5.456;2023-02-19T07:56:18;20.38;;;11.48;;
42110;SDS011;27766;52.174;5.456;2023-02-19T07:58:46;26.10;;;13.05;;
42110;SDS011;27766;52.174;5.456;2023-02-19T08:01:14;32.83;;;12.90;;
42110;SDS011;27766;52.174;5.456;2023-02-19T08:03:43;24.00;;;12.90;;
42110;SDS011;27766;52.174;5.456;2023-02-19T08:06:11;26.58;;;13.18;;
42110;SDS011;27766;52.174;5.456;2023-02-19T08:08:38;33.58;;;13.35;;
42110;SDS011;27766;52.174;5.456;2023-02-19T08:11:06;23.55;;;12.15;;
42110;SDS011;27766;52.174;5.456;2023-02-19T08:13:52;24.63;;;13.20;;
42110;SDS011;27766;52.174;5.456;2023-02-19T08:16:20;29.08;;;13.10;;
42110;SDS011;27766;52.174;5.456;2023-02-19T08:19:08;26.00;;;12.63;;
42110;SDS011;27766;52.174;5.456;2023-02-19T08:21:35;35.65;;;14.05;;
42110;SDS011;27766;52.174;5.456;2023-02-19T08:24:02;26.60;;;13.98;;
42110;SDS011;27766;52.174;5.456;2023-02-19T08:26:29;25.00;;;13.80;;
42110;SDS011;27766;52.174;5.456;2023-02-19T08:28:58;19.10;;;12.68;;
42110;SDS011;27766;52.174;5.456;2023-02-19T08:31:26;32.38;;;14.02;;
42110;SDS011;27766;52.174;5.456;2023-02-19T08:33:54;25.25;;;12.20;;
42110;SDS011;27766;52.174;5.456;2023-02-19T08:36:21;30.95;;;13.65;;
42110;SDS011;27766;52.174;5.456;2023-02-19T08:38:48;31.98;;;12.95;;
42110;SDS011;27766;52.174;5.456;2023-02-19T08:41:15;26.17;;;12.23;;
42110;SDS011;27766;52.174;5.456;2023-02-19T08:43:42;21.15;;;11.75;;
42110;SDS011;27766;52.174;5.456;2023-02-19T08:46:10;23.00;;;11.75;;
42110;SDS011;27766;52.174;5.456;2023-02-19T08:48:38;21.85;;;12.15;;
42110;SDS011;27766;52.174;5.456;2023-02-19T08:51:07;20.92;;;12.63;;
42110;SDS011;27766;52.174;5.456;2023-02-19T08:53:37;22.83;;;12.25;;
42110;SDS011;27766;52.174;5.456;2023-02-19T08:58:37;31.48;;;14.10;;
42110;SDS011;27766;52.174;5.456;2023-02-19T09:01:08;24.17;;;11.65;;
42110;SDS011;27766;52.174;5.456;2023-02-19T09:03:38;29.25;;;12.75;;
42110;SDS011;27766;52.174;5.456;2023-02-19T09:06:05;27.20;;;12.73;;
42110;SDS011;27766;52.174;5.456;2023-02-19T09:08:32;18.88;;;11.32;;
42110;SDS011;27766;52.174;5.456;2023-02-19T09:11:00;18.58;;;10.73;;
42110;SDS011;27766;52.174;5.456;2023-02-19T09:13:29;20.92;;;12.07;;
42110;SDS011;27766;52.174;5.456;2023-02-19T09:15:56;17.88;;;12.20;;
42110;SDS011;27766;52.174;5.456;2023-02-19T09:18:24;22.75;;;12.93;;
42110;SDS011;27766;52.174;5.456;2023-02-19T09:20:52;22.88;;;12.40;;
42110;SDS011;27766;52.174;5.456;2023-02-19T09:23:21;17.50;;;12.07;;
42110;SDS011;27766;52.174;5.456;2023-02-19T09:25:49;28.05;;;13.00;;
42110;SDS011;27766;52.174;5.456;2023-02-19T09:28:22;21.45;;;13.05;;
42110;SDS011;27766;52.174;5.456;2023-02-19T09:30:50;22.30;;;13.32;;
42110;SDS011;27766;52.174;5.456;2023-02-19T09:33:17;21.85;;;13.10;;
42110;SDS011;27766;52.174;5.456;2023-02-19T09:35:44;27.13;;;13.65;;
42110;SDS011;27766;52.174;5.456;2023-02-19T09:38:11;28.10;;;14.27;;
42110;SDS011;27766;52.174;5.456;2023-02-19T09:40:38;13.60;;;7.57;;
42110;SDS011;27766;52.174;5.456;2023-02-19T09:43:08;10.18;;;6.63;;
42110;SDS011;27766;52.174;5.456;2023-02-19T09:45:43;15.70;;;4.53;;
42110;SDS011;27766;52.174;5.456;2023-02-19T09:48:10;7.78;;;3.38;;
42110;SDS011;27766;52.174;5.456;2023-02-19T09:50:40;5.18;;;2.15;;
42110;SDS011;27766;52.174;5.456;2023-02-19T09:53:13;3.30;;;1.93;;
42110;SDS011;27766;52.174;5.456;2023-02-19T09:55:45;2.60;;;1.67;;
42110;SDS011;27766;52.174;5.456;2023-02-19T09:58:16;3.70;;;1.88;;
42110;SDS011;27766;52.174;5.456;2023-02-19T10:00:52;3.47;;;2.40;;
42110;SDS011;27766;52.174;5.456;2023-02-19T10:03:25;3.65;;;2.47;;
42110;SDS011;27766;52.174;5.456;2023-02-19T10:06:00;5.80;;;2.88;;
42110;SDS011;27766;52.174;5.456;2023-02-19T10:08:32;2.05;;;1.63;;
42110;SDS011;27766;52.174;5.456;2023-02-19T10:11:01;4.80;;;2.15;;
42110;SDS011;27766;52.174;5.456;2023-02-19T10:13:35;4.20;;;2.50;;
42110;SDS011;27766;52.174;5.456;2023-02-19T10:16:08;5.13;;;1.67;;
42110;SDS011;27766;52.174;5.456;2023-02-19T10:18:42;3.83;;;2.03;;
42110;SDS011;27766;52.174;5.456;2023-02-19T10:21:17;2.60;;;1.35;;
42110;SDS011;27766;52.174;5.456;2023-02-19T10:23:50;4.75;;;1.70;;
42110;SDS011;27766;52.174;5.456;2023-02-19T10:26:41;3.15;;;1.58;;
42110;SDS011;27766;52.174;5.456;2023-02-19T10:29:10;2.20;;;1.67;;
42110;SDS011;27766;52.174;5.456;2023-02-19T10:31:37;2.53;;;1.52;;
42110;SDS011;27766;52.174;5.456;2023-02-19T10:34:04;4.13;;;1.77;;
42110;SDS011;27766;52.174;5.456;2023-02-19T10:36:43;7.00;;;1.92;;
42110;SDS011;27766;52.174;5.456;2023-02-19T10:40:00;2.05;;;1.38;;
42110;SDS011;27766;52.174;5.456;2023-02-19T10:42:14;3.30;;;2.13;;
42110;SDS011;27766;52.174;5.456;2023-02-19T10:44:47;2.65;;;1.85;;
42110;SDS011;27766;52.174;5.456;2023-02-19T10:49:50;3.78;;;2.25;;
42110;SDS011;27766;52.174;5.456;2023-02-19T10:52:25;4.30;;;2.03;;
42110;SDS011;27766;52.174;5.456;2023-02-19T10:54:55;3.28;;;2.20;;
42110;SDS011;27766;52.174;5.456;2023-02-19T10:57:41;4.13;;;1.85;;
42110;SDS011;27766;52.174;5.456;2023-02-19T11:02:41;4.43;;;1.80;;
42110;SDS011;27766;52.174;5.456;2023-02-19T11:07:49;5.07;;;3.15;;
42110;SDS011;27766;52.174;5.456;2023-02-19T11:10:28;5.80;;;2.67;;
42110;SDS011;27766;52.174;5.456;2023-02-19T11:12:59;4.03;;;2.47;;
42110;SDS011;27766;52.174;5.456;2023-02-19T11:15:31;2.95;;;2.30;;
42110;SDS011;27766;52.174;5.456;2023-02-19T11:23:48;4.25;;;2.20;;
42110;SDS011;27766;52.174;5.456;2023-02-19T11:26:18;6.20;;;2.25;;
42110;SDS011;27766;52.174;5.456;2023-02-19T11:28:58;3.67;;;1.85;;
42110;SDS011;27766;52.174;5.456;2023-02-19T11:31:30;4.10;;;1.50;;
42110;SDS011;27766;52.174;5.456;2023-02-19T11:33:59;2.92;;;2.13;;
42110;SDS011;27766;52.174;5.456;2023-02-19T11:36:30;1.73;;;1.27;;
42110;SDS011;27766;52.174;5.456;2023-02-19T11:44:42;2.92;;;2.28;;
42110;SDS011;27766;52.174;5.456;2023-02-19T11:50:23;4.97;;;2.20;;
42110;SDS011;27766;52.174;5.456;2023-02-19T12:15:16;3.40;;;2.63;;
42110;SDS011;27766;52.174;5.456;2023-02-19T12:20:55;2.63;;;2.33;;
42110;SDS011;27766;52.174;5.456;2023-02-19T12:29:22;2.65;;;1.85;;
42110;SDS011;27766;52.174;5.456;2023-02-19T12:31:54;2.33;;;1.83;;
42110;SDS011;27766;52.174;5.456;2023-02-19T12:37:46;2.08;;;1.58;;
42110;SDS011;27766;52.174;5.456;2023-02-19T12:43:08;1.58;;;1.35;;
42110;SDS011;27766;52.174;5.456;2023-02-19T12:48:32;10.55;;;2.22;;
42110;SDS011;27766;52.174;5.456;2023-02-19T12:53:46;3.67;;;2.22;;
42110;SDS011;27766;52.174;5.456;2023-02-19T12:56:22;4.53;;;2.28;;
42110;SDS011;27766;52.174;5.456;2023-02-19T12:58:55;4.13;;;2.35;;
42110;SDS011;27766;52.174;5.456;2023-02-19T13:01:29;4.50;;;2.30;;
42110;SDS011;27766;52.174;5.456;2023-02-19T13:06:40;4.00;;;2.10;;
42110;SDS011;27766;52.174;5.456;2023-02-19T13:09:29;3.47;;;2.15;;
42110;SDS011;27766;52.174;5.456;2023-02-19T13:12:04;2.47;;;2.28;;
42110;SDS011;27766;52.174;5.456;2023-02-19T13:14:59;3.55;;;2.42;;
42110;SDS011;27766;52.174;5.456;2023-02-19T13:20:34;5.50;;;1.88;;
42110;SDS011;27766;52.174;5.456;2023-02-19T13:37:10;2.72;;;1.88;;
42110;SDS011;27766;52.174;5.456;2023-02-19T13:39:44;7.93;;;2.40;;
42110;SDS011;27766;52.174;5.456;2023-02-19T13:42:22;3.25;;;2.03;;
42110;SDS011;27766;52.174;5.456;2023-02-19T13:44:53;3.00;;;1.95;;
42110;SDS011;27766;52.174;5.456;2023-02-19T13:50:19;3.30;;;1.30;;
42110;SDS011;27766;52.174;5.456;2023-02-19T13:52:52;4.32;;;1.55;;
42110;SDS011;27766;52.174;5.456;2023-02-19T14:01:05;3.30;;;1.33;;
42110;SDS011;27766;52.174;5.456;2023-02-19T14:06:04;1.08;;;0.85;;
42110;SDS011;27766;52.174;5.456;2023-02-19T14:08:49;1.50;;;1.00;;
42110;SDS011;27766;52.174;5.456;2023-02-19T14:12:00;3.42;;;0.88;;
42110;SDS011;27766;52.174;5.456;2023-02-19T14:14:22;1.67;;;1.08;;
42110;SDS011;27766;52.174;5.456;2023-02-19T14:16:53;1.58;;;1.00;;
42110;SDS011;27766;52.174;5.456;2023-02-19T14:19:46;1.65;;;0.90;;
42110;SDS011;27766;52.174;5.456;2023-02-19T14:30:30;0.60;;;0.45;;
42110;SDS011;27766;52.174;5.456;2023-02-19T14:33:01;0.85;;;0.70;;
42110;SDS011;27766;52.174;5.456;2023-02-19T14:35:38;0.52;;;0.38;;
42110;SDS011;27766;52.174;5.456;2023-02-19T14:38:16;1.35;;;0.80;;
42110;SDS011;27766;52.174;5.456;2023-02-19T14:40:53;0.90;;;0.52;;
42110;SDS011;27766;52.174;5.456;2023-02-19T14:43:22;3.30;;;0.60;;
42110;SDS011;27766;52.174;5.456;2023-02-19T14:46:02;0.98;;;0.80;;
42110;SDS011;27766;52.174;5.456;2023-02-19T14:48:37;0.43;;;0.43;;
42110;SDS011;27766;52.174;5.456;2023-02-19T14:51:13;1.13;;;0.43;;
42110;SDS011;27766;52.174;5.456;2023-02-19T14:53:47;0.52;;;0.50;;
42110;SDS011;27766;52.174;5.456;2023-02-19T14:56:22;2.35;;;0.20;;
42110;SDS011;27766;52.174;5.456;2023-02-19T14:59:07;1.33;;;0.50;;
42110;SDS011;27766;52.174;5.456;2023-02-19T15:01:59;0.85;;;0.50;;
42110;SDS011;27766;52.174;5.456;2023-02-19T15:04:29;0.60;;;0.40;;
42110;SDS011;27766;52.174;5.456;2023-02-19T15:07:01;1.15;;;0.47;;
42110;SDS011;27766;52.174;5.456;2023-02-19T15:09:34;0.55;;;0.40;;
42110;SDS011;27766;52.174;5.456;2023-02-19T15:12:05;0.52;;;0.52;;
42110;SDS011;27766;52.174;5.456;2023-02-19T15:14:32;1.40;;;0.95;;
42110;SDS011;27766;52.174;5.456;2023-02-19T15:17:01;2.10;;;0.73;;
42110;SDS011;27766;52.174;5.456;2023-02-19T15:19:32;1.60;;;1.00;;
42110;SDS011;27766;52.174;5.456;2023-02-19T15:22:01;1.35;;;1.20;;
42110;SDS011;27766;52.174;5.456;2023-02-19T15:24:29;2.00;;;1.00;;
42110;SDS011;27766;52.174;5.456;2023-02-19T15:26:56;2.53;;;1.48;;
42110;SDS011;27766;52.174;5.456;2023-02-19T15:29:25;3.38;;;1.30;;
42110;SDS011;27766;52.174;5.456;2023-02-19T15:31:56;2.35;;;1.00;;
42110;SDS011;27766;52.174;5.456;2023-02-19T15:34:27;4.43;;;1.65;;
42110;SDS011;27766;52.174;5.456;2023-02-19T15:36:56;4.07;;;2.10;;
42110;SDS011;27766;52.174;5.456;2023-02-19T15:42:30;1.92;;;1.40;;
42110;SDS011;27766;52.174;5.456;2023-02-19T15:48:09;6.70;;;2.60;;
42110;SDS011;27766;52.174;5.456;2023-02-19T15:50:45;3.88;;;2.33;;
42110;SDS011;27766;52.174;5.456;2023-02-19T15:53:18;8.85;;;3.30;;
42110;SDS011;27766;52.174;5.456;2023-02-19T16:01:02;3.00;;;1.92;;
42110;SDS011;27766;52.174;5.456;2023-02-19T16:03:33;4.27;;;1.87;;
42110;SDS011;27766;52.174;5.456;2023-02-19T16:06:07;6.15;;;3.75;;
42110;SDS011;27766;52.174;5.456;2023-02-19T16:08:42;1.75;;;1.10;;
42110;SDS011;27766;52.174;5.456;2023-02-19T16:16:48;2.08;;;1.40;;
42110;SDS011;27766;52.174;5.456;2023-02-19T16:19:22;3.17;;;1.85;;
42110;SDS011;27766;52.174;5.456;2023-02-19T16:21:54;3.80;;;1.60;;
42110;SDS011;27766;52.174;5.456;2023-02-19T16:24:26;3.70;;;2.13;;
42110;SDS011;27766;52.174;5.456;2023-02-19T16:26:59;3.42;;;2.03;;
42110;SDS011;27766;52.174;5.456;2023-02-19T16:29:30;4.85;;;2.22;;
42110;SDS011;27766;52.174;5.456;2023-02-19T16:31:59;4.60;;;1.70;;
42110;SDS011;27766;52.174;5.456;2023-02-19T16:34:41;3.70;;;2.20;;
42110;SDS011;27766;52.174;5.456;2023-02-19T16:45:15;4.70;;;3.03;;
42110;SDS011;27766;52.174;5.456;2023-02-19T16:47:43;5.35;;;3.67;;
42110;SDS011;27766;52.174;5.456;2023-02-19T16:50:15;4.40;;;3.00;;
42110;SDS011;27766;52.174;5.456;2023-02-19T16:55:17;5.20;;;2.80;;
42110;SDS011;27766;52.174;5.456;2023-02-19T16:57:44;8.05;;;3.58;;
42110;SDS011;27766;52.174;5.456;2023-02-19T17:00:18;2.95;;;2.45;;
42110;SDS011;27766;52.174;5.456;2023-02-19T17:02:47;10.98;;;6.07;;
42110;SDS011;27766;52.174;5.456;2023-02-19T17:05:17;11.13;;;4.47;;
42110;SDS011;27766;52.174;5.456;2023-02-19T17:07:47;9.98;;;4.45;;
42110;SDS011;27766;52.174;5.456;2023-02-19T17:10:18;9.95;;;4.75;;
42110;SDS011;27766;52.174;5.456;2023-02-19T17:12:46;9.95;;;6.07;;
42110;SDS011;27766;52.174;5.456;2023-02-19T17:15:13;17.92;;;7.32;;
42110;SDS011;27766;52.174;5.456;2023-02-19T17:17:40;4.88;;;4.03;;
42110;SDS011;27766;52.174;5.456;2023-02-19T17:22:43;6.28;;;3.78;;
42110;SDS011;27766;52.174;5.456;2023-02-19T17:25:10;3.95;;;3.00;;
42110;SDS011;27766;52.174;5.456;2023-02-19T17:27:37;4.03;;;3.00;;
42110;SDS011;27766;52.174;5.456;2023-02-19T17:30:26;2.92;;;2.30;;
42110;SDS011;27766;52.174;5.456;2023-02-19T17:32:56;3.53;;;2.72;;
42110;SDS011;27766;52.174;5.456;2023-02-19T17:35:24;5.20;;;2.90;;
42110;SDS011;27766;52.174;5.456;2023-02-19T17:37:52;4.55;;;2.30;;
42110;SDS011;27766;52.174;5.456;2023-02-19T17:40:20;4.15;;;2.72;;
42110;SDS011;27766;52.174;5.456;2023-02-19T17:42:59;11.23;;;3.13;;
42110;SDS011;27766;52.174;5.456;2023-02-19T17:45:27;5.25;;;2.65;;
42110;SDS011;27766;52.174;5.456;2023-02-19T17:47:54;2.88;;;2.30;;
42110;SDS011;27766;52.174;5.456;2023-02-19T17:50:23;5.97;;;2.30;;
42110;SDS011;27766;52.174;5.456;2023-02-19T17:52:52;2.60;;;2.28;;
42110;SDS011;27766;52.174;5.456;2023-02-19T17:55:19;4.35;;;2.63;;